Historyczne dane pomiarowe

Dodano dane terminowe – wersja testowa.

Dane z okresu 1951-2019

Wersja bazy: 1.34 [2019-03-16, lista zmian], aktualizacja planowana na 2019-04-15

Dane meteo z obszaru Polski uzyskane na podstawie danych udostępnionych przez Instytut Meteorologii i Gospodarki Wodnej – Państwowy Instytut Badawczy.

 

Wybierz Datę:    

       

TemperaturaWilgotnośćWiatrCiśnienieOpadyŚniegCzas trwania zjawisk
 Stacja t tx tn tng RH VA  wxwx mslp ppp RRR   cm mm wxwxwxwxwxwxwx
1994-08-14 12.9 17.0 10.3 9.4-------- 34.6--- 0.0 3.2-------
1994-08-13 16.5 20.0 13.4 10.5-------- 12.9--- 0.0 0.2-------
1994-08-12 18.4 23.2 13.2 9.9-------- 0.0--- 0.0 11.9-------
1994-08-11 18.8 25.3 15.2 12.4-------- 0.0--- 0.0 13.5-------
1994-08-10 18.0 24.2 10.9 9.3-------- 0.0--- 0.0 12.4-------
1994-08-09 18.3 22.6 11.8 9.8-------- 0.0--- 0.0 13.1-------
1994-08-08 18.6 22.8 14.8 13.0-------- 0.0--- 0.0 13.4-------
1994-08-07 19.0 22.1 15.9 13.3-------- 0.0--- 0.0 12.2-------
1994-08-06 21.6 24.8 17.8 14.6-------- 0.0--- 0.0 8.7-------
1994-08-05 19.5 24.8 14.5 11.1-------- 0.0--- 0.0 13.7-------
1994-08-04 18.5 22.5 14.8 12.5-------- 0.0--- 0.0 12.2-------
1994-08-03 19.3 22.2 15.1 14.8-------- 0.0--- 0.0 4.0-------
1994-08-02 17.6 25.3 13.3 12.4-------- 0.0--- 0.0 7.6-------
1994-08-01 21.7 31.1 14.7 14.6-------- 0.0--- 0.0 6.0-------
1994-07-31 20.7 30.8 17.8 16.9-------- 2.8--- 0.0 8.4-------
1994-07-30 22.6 26.0 18.3 15.5-------- 0.1--- 0.0 7.8-------
1994-07-29 24.5 30.5 18.4 15.0-------- 0.0--- 0.0 11.3-------
1994-07-28 22.7 28.3 17.8 15.4-------- 0.0--- 0.0 14.0-------
1994-07-27 23.6 33.3 19.8 17.2-------- 0.0--- 0.0 12.6-------
1994-07-26 22.5 29.7 17.0 12.3-------- 0.0--- 0.0 13.5-------
1994-07-25 18.8 26.2 15.2 10.4-------- 0.0--- 0.0 14.9-------
1994-07-24 21.0 27.9 16.2 13.3-------- 0.0--- 0.0 15.0-------
1994-07-23 20.4 26.5 15.4 12.4-------- 0.0--- 0.0 15.1-------
1994-07-22 19.4 23.3 12.4 9.3-------- 0.0--- 0.0 14.2-------
1994-07-21 18.4 23.8 11.1 8.3-------- 0.0--- 0.0 15.5-------
1994-07-20 17.8 22.5 10.3 7.3-------- 0.0--- 0.0 15.3-------
1994-07-19 17.5 21.8 10.3 7.3-------- 0.0--- 0.0 15.3-------
1994-07-18 16.6 21.3 12.2 10.3-------- 0.0--- 0.0 10.6-------
1994-07-17 18.4 20.4 17.9 16.1-------- 0.0--- 0.0 13.0-------
1994-07-16 19.5 21.3 18.2 16.5-------- 0.0--- 0.0 10.3-------
1994-07-15 23.2 33.1 18.8 16.9-------- 18.6--- 0.0 8.8-------
1994-07-14 21.7 29.3 18.0 13.9-------- 0.0--- 0.0 11.7-------
1994-07-13 23.1 29.6 18.9 15.2-------- 0.0--- 0.0 12.0-------
1994-07-12 19.5 23.1 13.7 9.1-------- 0.0--- 0.0 15.4-------
1994-07-11 17.6 22.0 12.2 10.3-------- 0.0--- 0.0 14.2-------
1994-07-10 16.5 18.8 11.3 7.7-------- 0.0--- 0.0 14.5-------
1994-07-09 17.1 20.4 14.8 11.1-------- 0.0--- 0.0 13.1-------
1994-07-08 15.5 21.0 11.2 6.9-------- 0.0--- 0.0 13.0-------
1994-07-07 15.2 20.3 9.0 5.2-------- 0.0--- 0.0 14.0-------
1994-07-06 15.5 18.5 11.1 7.0-------- 0.0--- 0.0 15.2-------
1994-07-05 15.7 20.6 11.8 7.8-------- 0.0--- 0.0 14.1-------
1994-07-04 17.7 23.6 13.0 10.3-------- 0.0--- 0.0 15.7-------
1994-07-03 17.5 23.6 11.8 9.8-------- 0.0--- 0.0 15.9-------
1994-07-02 16.3 20.9 8.3 4.6-------- 0.0--- 0.0 15.4-------
1994-07-01 14.7 16.6 13.8 12.1-------- 0.0--- 0.0 14.5-------
1994-06-30 16.4 29.5 15.2 14.7-------- 0.0--- 0.0 12.6-------
1994-06-29 23.4 32.8 14.2 9.8-------- 5.2--- 0.0 11.5-------
1994-06-28 16.7 18.7 11.8 8.8-------- 0.0--- 0.0 12.0-------
1994-06-27 16.6 20.8 14.3 10.8-------- 0.0--- 0.0 7.2-------
1994-06-26 19.1 30.3 14.5 10.3-------- 0.0--- 0.0 13.5-------
1994-06-25 16.6 24.9 6.8 3.5-------- 0.0--- 0.0 15.1-------
1994-06-24 12.9 14.2 11.6 10.3-------- 0.0--- 0.0 15.3-------
1994-06-23 13.4 15.7 11.8 10.4-------- 0.1--- 0.0 10.2-------
1994-06-22 16.3 18.7 14.2 11.6-------- 0.1--- 0.0 3.3-------
1994-06-21 15.1 18.5 12.2 4.2-------- 2.0--- 0.0 10.3-------
1994-06-20 12.8 14.4 11.5 9.3-------- 0.0--- 0.0 14.2-------
1994-06-19 12.8 15.0 11.2 4.4-------- 4.4--- 0.0 8.4-------
1994-06-18 12.0 16.6 6.7 3.3-------- 3.4--- 0.0 2.8-------
1994-06-17 11.1 12.4 10.1 8.7-------- 0.0--- 0.0 13.8-------
1994-06-16 10.9 12.5 8.9 6.4-------- 0.0--- 0.0 8.8-------
325.3 ms

 

Źródłem pochodzenia danych jest Instytut Meteorologii i Gospodarki Wodnej – Państwowy Instytut Badawczy. Dane Instytutu Meteorologii i Gospodarki Wodnej – Państwowego Instytutu Badawczego zostały przetworzone.

Dane źródłowe można odnaleźć na stronie https://dane.imgw.pl